sensor_id;sensor_type;location;lat;lon;timestamp;pressure;altitude;pressure_sealevel;temperature;humidity
29467;BME280;60968;37.490;-122.288;2022-10-23T00:02:14;98015.00;;;15.03;54.05
29467;BME280;60968;37.490;-122.288;2022-10-23T00:05:16;98014.59;;;14.93;54.75
29467;BME280;60968;37.490;-122.288;2022-10-23T00:08:16;98018.22;;;14.90;55.92
29467;BME280;60968;37.490;-122.288;2022-10-23T00:11:21;98019.66;;;14.79;56.29
29467;BME280;60968;37.490;-122.288;2022-10-23T00:14:23;98017.47;;;14.69;56.14
29467;BME280;60968;37.490;-122.288;2022-10-23T00:17:24;98017.44;;;14.50;55.56
29467;BME280;60968;37.490;-122.288;2022-10-23T00:20:25;98014.97;;;14.47;55.91
29467;BME280;60968;37.490;-122.288;2022-10-23T00:23:29;98012.09;;;14.33;55.52
29467;BME280;60968;37.490;-122.288;2022-10-23T00:26:30;98017.63;;;14.27;56.04
29467;BME280;60968;37.490;-122.288;2022-10-23T00:29:31;98007.84;;;14.11;56.17
29467;BME280;60968;37.490;-122.288;2022-10-23T00:32:33;98008.38;;;13.99;55.97
29467;BME280;60968;37.490;-122.288;2022-10-23T00:35:37;98012.06;;;13.95;55.86
29467;BME280;60968;37.490;-122.288;2022-10-23T00:38:38;98005.53;;;13.84;56.31
29467;BME280;60968;37.490;-122.288;2022-10-23T00:41:39;98006.88;;;13.72;56.26
29467;BME280;60968;37.490;-122.288;2022-10-23T00:47:41;97997.66;;;13.64;56.03
29467;BME280;60968;37.490;-122.288;2022-10-23T00:50:42;97987.53;;;13.56;56.82
29467;BME280;60968;37.490;-122.288;2022-10-23T00:53:44;97996.75;;;13.44;57.67
29467;BME280;60968;37.490;-122.288;2022-10-23T00:56:50;97993.69;;;13.33;58.13
29467;BME280;60968;37.490;-122.288;2022-10-23T00:59:52;97985.38;;;13.23;59.01
29467;BME280;60968;37.490;-122.288;2022-10-23T01:02:54;97988.53;;;13.11;59.69
29467;BME280;60968;37.490;-122.288;2022-10-23T01:06:03;97997.00;;;12.94;60.45
29467;BME280;60968;37.490;-122.288;2022-10-23T01:12:42;98011.50;;;12.80;61.06
29467;BME280;60968;37.490;-122.288;2022-10-23T01:16:23;98011.50;;;12.80;60.92
29467;BME280;60968;37.490;-122.288;2022-10-23T01:20:00;98007.25;;;12.78;61.37
29467;BME280;60968;37.490;-122.288;2022-10-23T01:29:55;98027.28;;;12.55;63.57
29467;BME280;60968;37.490;-122.288;2022-10-23T01:33:32;98034.66;;;12.44;64.12
29467;BME280;60968;37.490;-122.288;2022-10-23T01:36:37;98023.47;;;12.40;65.03
29467;BME280;60968;37.490;-122.288;2022-10-23T01:39:45;98030.63;;;12.35;65.93
29467;BME280;60968;37.490;-122.288;2022-10-23T01:42:51;98026.44;;;12.31;66.65
29467;BME280;60968;37.490;-122.288;2022-10-23T01:46:00;98028.34;;;12.26;66.30
29467;BME280;60968;37.490;-122.288;2022-10-23T01:49:05;98039.09;;;12.18;66.31
29467;BME280;60968;37.490;-122.288;2022-10-23T01:52:10;98040.00;;;12.17;65.85
29467;BME280;60968;37.490;-122.288;2022-10-23T01:55:13;98033.13;;;12.14;65.61
29467;BME280;60968;37.490;-122.288;2022-10-23T01:58:15;98027.13;;;12.12;65.43
29467;BME280;60968;37.490;-122.288;2022-10-23T02:01:17;98018.34;;;12.13;64.48
29467;BME280;60968;37.490;-122.288;2022-10-23T02:04:28;98029.66;;;12.14;63.97
29467;BME280;60968;37.490;-122.288;2022-10-23T02:07:30;98039.19;;;12.15;63.23
29467;BME280;60968;37.490;-122.288;2022-10-23T02:10:46;98029.50;;;12.18;63.14
29467;BME280;60968;37.490;-122.288;2022-10-23T02:14:10;98032.88;;;12.21;62.31
29467;BME280;60968;37.490;-122.288;2022-10-23T02:17:29;98049.44;;;12.21;62.09
29467;BME280;60968;37.490;-122.288;2022-10-23T02:20:41;98060.81;;;12.18;60.98
29467;BME280;60968;37.490;-122.288;2022-10-23T02:24:00;98073.78;;;12.22;60.48
29467;BME280;60968;37.490;-122.288;2022-10-23T02:27:07;98064.19;;;12.22;60.74
29467;BME280;60968;37.490;-122.288;2022-10-23T02:30:14;98076.31;;;12.23;59.85
29467;BME280;60968;37.490;-122.288;2022-10-23T02:33:16;98083.31;;;12.23;59.88
29467;BME280;60968;37.490;-122.288;2022-10-23T02:36:18;98087.06;;;12.15;60.41
29467;BME280;60968;37.490;-122.288;2022-10-23T02:39:21;98083.50;;;12.18;61.24
29467;BME280;60968;37.490;-122.288;2022-10-23T02:53:25;98111.41;;;11.89;66.29
29467;BME280;60968;37.490;-122.288;2022-10-23T02:59:48;98121.31;;;11.79;69.38
29467;BME280;60968;37.490;-122.288;2022-10-23T03:02:55;98121.47;;;11.75;70.19
29467;BME280;60968;37.490;-122.288;2022-10-23T03:05:56;98123.41;;;11.68;71.06
29467;BME280;60968;37.490;-122.288;2022-10-23T03:09:00;98124.53;;;11.61;71.88
29467;BME280;60968;37.490;-122.288;2022-10-23T03:12:02;98109.97;;;11.54;73.67
29467;BME280;60968;37.490;-122.288;2022-10-23T03:15:04;98098.94;;;11.45;74.25
29467;BME280;60968;37.490;-122.288;2022-10-23T03:18:05;98103.44;;;11.40;75.37
29467;BME280;60968;37.490;-122.288;2022-10-23T03:21:06;98091.56;;;11.31;75.91
29467;BME280;60968;37.490;-122.288;2022-10-23T03:24:07;98093.38;;;11.29;76.15
29467;BME280;60968;37.490;-122.288;2022-10-23T03:27:08;98101.41;;;11.22;76.99
29467;BME280;60968;37.490;-122.288;2022-10-23T03:30:09;98110.97;;;11.23;76.74
29467;BME280;60968;37.490;-122.288;2022-10-23T03:33:10;98117.00;;;11.23;76.99
29467;BME280;60968;37.490;-122.288;2022-10-23T03:36:11;98124.00;;;11.23;77.23
29467;BME280;60968;37.490;-122.288;2022-10-23T03:39:13;98150.16;;;11.20;76.57
29467;BME280;60968;37.490;-122.288;2022-10-23T03:42:14;98145.84;;;11.19;77.13
29467;BME280;60968;37.490;-122.288;2022-10-23T03:45:15;98155.44;;;11.18;77.38
29467;BME280;60968;37.490;-122.288;2022-10-23T03:48:16;98153.66;;;11.19;77.34
29467;BME280;60968;37.490;-122.288;2022-10-23T03:51:16;98158.88;;;11.19;77.59
29467;BME280;60968;37.490;-122.288;2022-10-23T03:54:20;98157.16;;;11.18;76.21
29467;BME280;60968;37.490;-122.288;2022-10-23T03:57:21;98160.66;;;11.16;75.64
29467;BME280;60968;37.490;-122.288;2022-10-23T04:00:22;98165.00;;;11.18;74.36
29467;BME280;60968;37.490;-122.288;2022-10-23T04:03:23;98171.03;;;11.20;74.69
29467;BME280;60968;37.490;-122.288;2022-10-23T04:06:24;98184.97;;;11.19;75.01
29467;BME280;60968;37.490;-122.288;2022-10-23T04:09:24;98179.88;;;11.14;76.05
29467;BME280;60968;37.490;-122.288;2022-10-23T04:12:25;98191.25;;;11.11;76.35
29467;BME280;60968;37.490;-122.288;2022-10-23T04:15:26;98191.34;;;11.08;76.57
29467;BME280;60968;37.490;-122.288;2022-10-23T04:18:27;98183.66;;;11.04;77.21
29467;BME280;60968;37.490;-122.288;2022-10-23T04:21:28;98173.25;;;11.02;76.76
29467;BME280;60968;37.490;-122.288;2022-10-23T04:24:29;98180.28;;;11.00;76.51
29467;BME280;60968;37.490;-122.288;2022-10-23T04:27:29;98190.72;;;11.00;77.08
29467;BME280;60968;37.490;-122.288;2022-10-23T04:30:30;98198.53;;;11.00;76.31
29467;BME280;60968;37.490;-122.288;2022-10-23T04:33:31;98196.72;;;11.02;76.11
29467;BME280;60968;37.490;-122.288;2022-10-23T04:36:32;98196.81;;;10.99;75.85
29467;BME280;60968;37.490;-122.288;2022-10-23T04:39:33;98183.00;;;10.95;76.25
29467;BME280;60968;37.490;-122.288;2022-10-23T04:42:33;98192.63;;;10.93;75.91
29467;BME280;60968;37.490;-122.288;2022-10-23T04:45:34;98199.56;;;10.94;75.84
29467;BME280;60968;37.490;-122.288;2022-10-23T04:48:35;98202.19;;;10.94;75.68
29467;BME280;60968;37.490;-122.288;2022-10-23T04:51:37;98204.81;;;10.93;75.75
29467;BME280;60968;37.490;-122.288;2022-10-23T04:54:38;98198.75;;;10.92;76.39
29467;BME280;60968;37.490;-122.288;2022-10-23T04:57:39;98186.66;;;10.90;76.26
29467;BME280;60968;37.490;-122.288;2022-10-23T05:00:40;98198.88;;;10.88;76.37
29467;BME280;60968;37.490;-122.288;2022-10-23T05:03:41;98191.94;;;10.87;76.59
29467;BME280;60968;37.490;-122.288;2022-10-23T05:06:42;98191.16;;;10.85;76.78
29467;BME280;60968;37.490;-122.288;2022-10-23T05:09:43;98199.91;;;10.82;77.49
29467;BME280;60968;37.490;-122.288;2022-10-23T05:12:43;98190.41;;;10.79;77.52
29467;BME280;60968;37.490;-122.288;2022-10-23T05:15:46;98194.84;;;10.77;77.63
29467;BME280;60968;37.490;-122.288;2022-10-23T05:18:48;98193.16;;;10.75;78.21
29467;BME280;60968;37.490;-122.288;2022-10-23T05:21:50;98203.59;;;10.75;78.23
29467;BME280;60968;37.490;-122.288;2022-10-23T05:24:52;98199.25;;;10.74;78.37
29467;BME280;60968;37.490;-122.288;2022-10-23T05:27:55;98207.91;;;10.74;79.07
29467;BME280;60968;37.490;-122.288;2022-10-23T05:30:57;98203.63;;;10.73;78.69
29467;BME280;60968;37.490;-122.288;2022-10-23T05:33:59;98200.16;;;10.73;78.38
29467;BME280;60968;37.490;-122.288;2022-10-23T05:37:01;98213.22;;;10.71;79.01
29467;BME280;60968;37.490;-122.288;2022-10-23T05:40:03;98208.91;;;10.70;79.96
29467;BME280;60968;37.490;-122.288;2022-10-23T05:43:04;98216.81;;;10.67;80.46
29467;BME280;60968;37.490;-122.288;2022-10-23T05:46:05;98230.78;;;10.64;80.84
29467;BME280;60968;37.490;-122.288;2022-10-23T05:49:06;98233.47;;;10.61;82.20
29467;BME280;60968;37.490;-122.288;2022-10-23T05:52:10;98249.22;;;10.57;83.44
29467;BME280;60968;37.490;-122.288;2022-10-23T05:55:11;98260.63;;;10.53;84.11
29467;BME280;60968;37.490;-122.288;2022-10-23T05:58:11;98274.53;;;10.52;84.56
29467;BME280;60968;37.490;-122.288;2022-10-23T06:01:13;98278.03;;;10.51;85.40
29467;BME280;60968;37.490;-122.288;2022-10-23T06:04:14;98279.91;;;10.45;86.22
29467;BME280;60968;37.490;-122.288;2022-10-23T06:07:15;98282.72;;;10.36;87.33
29467;BME280;60968;37.490;-122.288;2022-10-23T06:10:16;98286.25;;;10.32;87.70
29467;BME280;60968;37.490;-122.288;2022-10-23T06:13:17;98289.81;;;10.29;88.16
29467;BME280;60968;37.490;-122.288;2022-10-23T06:16:20;98287.28;;;10.26;87.95
29467;BME280;60968;37.490;-122.288;2022-10-23T06:19:21;98288.19;;;10.25;88.10
29467;BME280;60968;37.490;-122.288;2022-10-23T06:22:22;98299.53;;;10.23;88.52
29467;BME280;60968;37.490;-122.288;2022-10-23T06:25:23;98302.16;;;10.21;88.99
29467;BME280;60968;37.490;-122.288;2022-10-23T06:28:24;98307.47;;;10.17;89.93
29467;BME280;60968;37.490;-122.288;2022-10-23T06:31:25;98317.06;;;10.15;90.14
29467;BME280;60968;37.490;-122.288;2022-10-23T06:34:27;98307.53;;;10.13;90.23
29467;BME280;60968;37.490;-122.288;2022-10-23T06:37:27;98310.16;;;10.13;89.94
29467;BME280;60968;37.490;-122.288;2022-10-23T06:40:30;98311.88;;;10.15;89.64
29467;BME280;60968;37.490;-122.288;2022-10-23T06:43:30;98313.59;;;10.16;90.23
29467;BME280;60968;37.490;-122.288;2022-10-23T06:46:33;98311.94;;;10.11;90.18
29467;BME280;60968;37.490;-122.288;2022-10-23T06:49:35;98313.72;;;10.09;90.84
29467;BME280;60968;37.490;-122.288;2022-10-23T06:52:35;98314.59;;;10.10;91.35
29467;BME280;60968;37.490;-122.288;2022-10-23T06:55:37;98313.72;;;10.09;91.26
29467;BME280;60968;37.490;-122.288;2022-10-23T06:58:40;98326.81;;;10.06;91.39
29467;BME280;60968;37.490;-122.288;2022-10-23T07:01:41;98316.47;;;10.03;90.81
29467;BME280;60968;37.490;-122.288;2022-10-23T07:04:42;98333.84;;;10.03;90.35
29467;BME280;60968;37.490;-122.288;2022-10-23T07:07:43;98324.34;;;10.00;90.55
29467;BME280;60968;37.490;-122.288;2022-10-23T07:10:44;98320.03;;;9.99;90.41
29467;BME280;60968;37.490;-122.288;2022-10-23T07:13:44;98324.34;;;10.00;90.21
29467;BME280;60968;37.490;-122.288;2022-10-23T07:16:45;98325.22;;;9.99;90.54
29467;BME280;60968;37.490;-122.288;2022-10-23T07:19:46;98333.91;;;9.98;91.17
29467;BME280;60968;37.490;-122.288;2022-10-23T07:22:54;98329.56;;;10.00;91.61
29467;BME280;60968;37.490;-122.288;2022-10-23T07:25:55;98334.81;;;9.97;90.92
29467;BME280;60968;37.490;-122.288;2022-10-23T07:28:56;98334.81;;;9.97;90.91
29467;BME280;60968;37.490;-122.288;2022-10-23T07:31:57;98342.69;;;9.94;90.35
29467;BME280;60968;37.490;-122.288;2022-10-23T07:34:58;98345.25;;;9.95;90.88
29467;BME280;60968;37.490;-122.288;2022-10-23T07:37:59;98339.19;;;9.95;89.83
29467;BME280;60968;37.490;-122.288;2022-10-23T07:41:00;98346.22;;;9.91;88.89
29467;BME280;60968;37.490;-122.288;2022-10-23T07:44:01;98342.84;;;9.88;89.24
29467;BME280;60968;37.490;-122.288;2022-10-23T07:47:02;98347.16;;;9.89;89.35
29467;BME280;60968;37.490;-122.288;2022-10-23T07:50:03;98346.38;;;9.84;89.44
29467;BME280;60968;37.490;-122.288;2022-10-23T07:53:04;98346.44;;;9.82;89.05
29467;BME280;60968;37.490;-122.288;2022-10-23T07:56:14;98346.44;;;9.82;89.01
29467;BME280;60968;37.490;-122.288;2022-10-23T07:59:15;98350.81;;;9.78;89.17
29467;BME280;60968;37.490;-122.288;2022-10-23T08:02:16;98360.38;;;9.78;89.37
29467;BME280;60968;37.490;-122.288;2022-10-23T08:05:18;98357.84;;;9.75;89.22
29467;BME280;60968;37.490;-122.288;2022-10-23T08:08:20;98367.38;;;9.74;89.41
29467;BME280;60968;37.490;-122.288;2022-10-23T08:11:23;98352.72;;;9.70;89.50
29467;BME280;60968;37.490;-122.288;2022-10-23T08:14:24;98358.00;;;9.67;90.13
29467;BME280;60968;37.490;-122.288;2022-10-23T08:17:25;98358.00;;;9.67;89.97
29467;BME280;60968;37.490;-122.288;2022-10-23T08:20:26;98363.22;;;9.67;90.17
29467;BME280;60968;37.490;-122.288;2022-10-23T08:23:28;98364.97;;;9.67;90.48
29467;BME280;60968;37.490;-122.288;2022-10-23T08:26:29;98373.69;;;9.64;90.85
29467;BME280;60968;37.490;-122.288;2022-10-23T08:29:31;98377.22;;;9.60;91.06
29467;BME280;60968;37.490;-122.288;2022-10-23T08:32:32;98384.22;;;9.58;91.15
29467;BME280;60968;37.490;-122.288;2022-10-23T08:35:36;98388.50;;;9.59;90.80
29467;BME280;60968;37.490;-122.288;2022-10-23T08:38:37;98379.06;;;9.56;91.12
29467;BME280;60968;37.490;-122.288;2022-10-23T08:41:47;98381.66;;;9.55;91.19
29467;BME280;60968;37.490;-122.288;2022-10-23T08:44:58;98385.25;;;9.49;92.64
29467;BME280;60968;37.490;-122.288;2022-10-23T08:51:45;98390.59;;;9.41;93.97
29467;BME280;60968;37.490;-122.288;2022-10-23T08:58:17;98399.28;;;9.40;93.91
29467;BME280;60968;37.490;-122.288;2022-10-23T09:04:31;98389.00;;;9.34;94.16
29467;BME280;60968;37.490;-122.288;2022-10-23T09:07:42;98389.00;;;9.34;94.05
29467;BME280;60968;37.490;-122.288;2022-10-23T09:11:05;98388.13;;;9.35;93.05
29467;BME280;60968;37.490;-122.288;2022-10-23T09:17:29;98390.75;;;9.35;92.60
29467;BME280;60968;37.490;-122.288;2022-10-23T09:20:33;98393.34;;;9.34;93.00
29467;BME280;60968;37.490;-122.288;2022-10-23T09:23:34;98404.63;;;9.34;92.72
29467;BME280;60968;37.490;-122.288;2022-10-23T09:26:35;98410.75;;;9.30;92.87
29467;BME280;60968;37.490;-122.288;2022-10-23T09:29:36;98417.72;;;9.28;93.06
29467;BME280;60968;37.490;-122.288;2022-10-23T09:32:37;98407.31;;;9.28;93.03
29467;BME280;60968;37.490;-122.288;2022-10-23T09:35:38;98418.63;;;9.27;92.61
29467;BME280;60968;37.490;-122.288;2022-10-23T09:38:52;98425.53;;;9.26;92.83
29467;BME280;60968;37.490;-122.288;2022-10-23T09:41:54;98430.78;;;9.25;92.54
29467;BME280;60968;37.490;-122.288;2022-10-23T09:44:55;98435.91;;;9.28;92.91
29467;BME280;60968;37.490;-122.288;2022-10-23T09:48:14;98442.81;;;9.29;92.51
29467;BME280;60968;37.490;-122.288;2022-10-23T09:51:17;98431.66;;;9.25;92.41
29467;BME280;60968;37.490;-122.288;2022-10-23T09:54:21;98434.31;;;9.21;92.05
29467;BME280;60968;37.490;-122.288;2022-10-23T09:57:43;98432.63;;;9.20;90.65
29467;BME280;60968;37.490;-122.288;2022-10-23T10:00:46;98433.50;;;9.19;90.41
29467;BME280;60968;37.490;-122.288;2022-10-23T10:03:49;98435.25;;;9.17;90.67
29467;BME280;60968;37.490;-122.288;2022-10-23T10:06:56;98435.22;;;9.20;89.95
29467;BME280;60968;37.490;-122.288;2022-10-23T10:09:57;98439.56;;;9.18;89.94
29467;BME280;60968;37.490;-122.288;2022-10-23T10:13:02;98427.44;;;9.17;89.23
29467;BME280;60968;37.490;-122.288;2022-10-23T10:16:15;98438.66;;;9.20;88.82
29467;BME280;60968;37.490;-122.288;2022-10-23T10:35:41;98435.47;;;9.03;92.84
29467;BME280;60968;37.490;-122.288;2022-10-23T10:48:46;98452.81;;;9.02;94.04
29467;BME280;60968;37.490;-122.288;2022-10-23T10:52:09;98452.88;;;8.99;93.57
29467;BME280;60968;37.490;-122.288;2022-10-23T10:55:22;98456.34;;;8.98;93.32
29467;BME280;60968;37.490;-122.288;2022-10-23T10:58:37;98454.59;;;9.00;92.80
29467;BME280;60968;37.490;-122.288;2022-10-23T11:01:52;98458.94;;;8.98;92.92
29467;BME280;60968;37.490;-122.288;2022-10-23T11:05:36;98455.53;;;8.96;92.67
29467;BME280;60968;37.490;-122.288;2022-10-23T11:08:38;98456.47;;;8.92;92.80
29467;BME280;60968;37.490;-122.288;2022-10-23T11:11:40;98450.38;;;8.95;92.95
29467;BME280;60968;37.490;-122.288;2022-10-23T11:14:41;98453.00;;;8.91;93.33
29467;BME280;60968;37.490;-122.288;2022-10-23T11:17:49;98458.22;;;8.90;93.82
29467;BME280;60968;37.490;-122.288;2022-10-23T11:21:17;98461.66;;;8.92;94.49
29467;BME280;60968;37.490;-122.288;2022-10-23T11:43:08;98484.41;;;8.78;96.11
29467;BME280;60968;37.490;-122.288;2022-10-23T11:46:14;98476.63;;;8.76;96.47
29467;BME280;60968;37.490;-122.288;2022-10-23T11:49:28;98483.53;;;8.77;96.40
29467;BME280;60968;37.490;-122.288;2022-10-23T11:52:28;98477.41;;;8.81;96.55
29467;BME280;60968;37.490;-122.288;2022-10-23T11:55:31;98488.63;;;8.85;96.39
29467;BME280;60968;37.490;-122.288;2022-10-23T11:58:43;98486.94;;;8.82;95.81
29467;BME280;60968;37.490;-122.288;2022-10-23T12:01:45;98490.34;;;8.84;95.12
29467;BME280;60968;37.490;-122.288;2022-10-23T12:04:49;98492.91;;;8.86;94.46
29467;BME280;60968;37.490;-122.288;2022-10-23T12:07:59;98499.00;;;8.86;94.29
29467;BME280;60968;37.490;-122.288;2022-10-23T12:11:01;98517.22;;;8.85;94.01
29467;BME280;60968;37.490;-122.288;2022-10-23T12:14:02;98509.41;;;8.85;93.71
29467;BME280;60968;37.490;-122.288;2022-10-23T12:20:37;98525.03;;;8.83;93.38
29467;BME280;60968;37.490;-122.288;2022-10-23T12:26:54;98526.88;;;8.75;93.14
29467;BME280;60968;37.490;-122.288;2022-10-23T12:40:15;98539.94;;;8.67;94.28
29467;BME280;60968;37.490;-122.288;2022-10-23T12:43:30;98549.53;;;8.64;95.18
29467;BME280;60968;37.490;-122.288;2022-10-23T12:46:53;98550.44;;;8.61;95.23
29467;BME280;60968;37.490;-122.288;2022-10-23T12:49:56;98560.88;;;8.55;95.88
29467;BME280;60968;37.490;-122.288;2022-10-23T12:53:01;98561.81;;;8.52;95.92
29467;BME280;60968;37.490;-122.288;2022-10-23T12:56:04;98569.59;;;8.51;96.42
29467;BME280;60968;37.490;-122.288;2022-10-23T12:59:16;98571.44;;;8.41;97.26
29467;BME280;60968;37.490;-122.288;2022-10-23T13:02:26;98572.41;;;8.32;98.15
29467;BME280;60968;37.490;-122.288;2022-10-23T13:05:28;98587.13;;;8.32;97.54
29467;BME280;60968;37.490;-122.288;2022-10-23T13:08:39;98586.31;;;8.25;97.33
29467;BME280;60968;37.490;-122.288;2022-10-23T13:11:41;98589.03;;;8.16;96.68
29467;BME280;60968;37.490;-122.288;2022-10-23T13:18:08;98586.38;;;8.22;94.78
29467;BME280;60968;37.490;-122.288;2022-10-23T13:21:29;98581.94;;;8.30;92.92
29467;BME280;60968;37.490;-122.288;2022-10-23T13:24:30;98580.22;;;8.29;92.64
29467;BME280;60968;37.490;-122.288;2022-10-23T13:27:32;98589.75;;;8.29;92.12
29467;BME280;60968;37.490;-122.288;2022-10-23T13:30:40;98594.16;;;8.22;92.07
29467;BME280;60968;37.490;-122.288;2022-10-23T13:33:46;98600.19;;;8.22;91.73
29467;BME280;60968;37.490;-122.288;2022-10-23T13:37:23;98608.91;;;8.17;92.12
29467;BME280;60968;37.490;-122.288;2022-10-23T13:40:26;98615.94;;;8.07;93.57
29467;BME280;60968;37.490;-122.288;2022-10-23T13:43:28;98620.31;;;7.99;94.57
29467;BME280;60968;37.490;-122.288;2022-10-23T13:46:30;98624.72;;;7.94;95.65
29467;BME280;60968;37.490;-122.288;2022-10-23T13:49:31;98623.00;;;7.93;95.06
29467;BME280;60968;37.490;-122.288;2022-10-23T13:52:33;98634.22;;;7.96;94.97
29467;BME280;60968;37.490;-122.288;2022-10-23T13:55:34;98624.63;;;8.03;91.73
29467;BME280;60968;37.490;-122.288;2022-10-23T13:58:37;98624.53;;;8.12;90.32
29467;BME280;60968;37.490;-122.288;2022-10-23T14:01:38;98634.03;;;8.15;89.37
29467;BME280;60968;37.490;-122.288;2022-10-23T14:04:39;98637.44;;;8.17;87.39
29467;BME280;60968;37.490;-122.288;2022-10-23T14:07:40;98642.66;;;8.17;86.81
29467;BME280;60968;37.490;-122.288;2022-10-23T14:10:41;98643.53;;;8.16;86.86
29467;BME280;60968;37.490;-122.288;2022-10-23T14:13:42;98641.81;;;8.15;86.40
29467;BME280;60968;37.490;-122.288;2022-10-23T14:16:42;98646.06;;;8.22;85.29
29467;BME280;60968;37.490;-122.288;2022-10-23T14:19:43;98665.06;;;8.24;84.42
29467;BME280;60968;37.490;-122.288;2022-10-23T14:22:44;98658.84;;;8.40;82.66
29467;BME280;60968;37.490;-122.288;2022-10-23T14:25:45;98650.00;;;8.58;80.81
29467;BME280;60968;37.490;-122.288;2022-10-23T14:28:46;98652.50;;;8.66;80.43
29467;BME280;60968;37.490;-122.288;2022-10-23T14:31:47;98655.13;;;8.65;80.36
29467;BME280;60968;37.490;-122.288;2022-10-23T14:34:52;98656.88;;;8.64;80.71
29467;BME280;60968;37.490;-122.288;2022-10-23T14:37:53;98662.03;;;8.67;78.35
29467;BME280;60968;37.490;-122.288;2022-10-23T14:40:54;98674.03;;;8.76;78.28
29467;BME280;60968;37.490;-122.288;2022-10-23T14:43:55;98670.50;;;8.83;77.58
29467;BME280;60968;37.490;-122.288;2022-10-23T14:46:57;98681.59;;;8.96;77.43
29467;BME280;60968;37.490;-122.288;2022-10-23T14:49:58;98679.78;;;9.04;76.39
29467;BME280;60968;37.490;-122.288;2022-10-23T14:52:58;98681.38;;;9.13;76.36
29467;BME280;60968;37.490;-122.288;2022-10-23T14:56:03;98682.03;;;9.27;74.48
29467;BME280;60968;37.490;-122.288;2022-10-23T14:59:04;98688.66;;;9.49;72.80
29467;BME280;60968;37.490;-122.288;2022-10-23T15:02:05;98693.59;;;9.67;72.35
29467;BME280;60968;37.490;-122.288;2022-10-23T15:05:06;98694.22;;;9.82;71.68
29467;BME280;60968;37.490;-122.288;2022-10-23T15:08:07;98693.97;;;9.97;70.48
29467;BME280;60968;37.490;-122.288;2022-10-23T15:11:08;98697.28;;;10.05;69.66
29467;BME280;60968;37.490;-122.288;2022-10-23T15:14:09;98696.25;;;10.17;69.05
29467;BME280;60968;37.490;-122.288;2022-10-23T15:17:10;98705.59;;;10.27;69.14
29467;BME280;60968;37.490;-122.288;2022-10-23T15:20:11;98706.34;;;10.36;68.57
29467;BME280;60968;37.490;-122.288;2022-10-23T15:23:11;98715.75;;;10.44;68.67
29467;BME280;60968;37.490;-122.288;2022-10-23T15:26:15;98719.88;;;10.56;67.68
29467;BME280;60968;37.490;-122.288;2022-10-23T15:29:16;98712.75;;;10.66;66.13
29467;BME280;60968;37.490;-122.288;2022-10-23T15:32:17;98724.72;;;10.76;65.81
29467;BME280;60968;37.490;-122.288;2022-10-23T15:35:20;98729.72;;;10.86;64.52
29467;BME280;60968;37.490;-122.288;2022-10-23T15:38:21;98739.09;;;10.96;64.44
29467;BME280;60968;37.490;-122.288;2022-10-23T15:41:30;98744.97;;;11.06;63.45
29467;BME280;60968;37.490;-122.288;2022-10-23T15:44:32;98754.34;;;11.14;62.84
29467;BME280;60968;37.490;-122.288;2022-10-23T15:47:33;98753.31;;;11.23;61.11
29467;BME280;60968;37.490;-122.288;2022-10-23T15:50:35;98762.50;;;11.41;60.57
29467;BME280;60968;37.490;-122.288;2022-10-23T15:53:36;98765.56;;;11.59;58.83
29467;BME280;60968;37.490;-122.288;2022-10-23T15:56:37;98761.00;;;11.70;58.00
29467;BME280;60968;37.490;-122.288;2022-10-23T15:59:38;98777.31;;;11.78;56.59
29467;BME280;60968;37.490;-122.288;2022-10-23T16:02:39;98778.78;;;11.92;55.29
29467;BME280;60968;37.490;-122.288;2022-10-23T16:05:40;98781.66;;;11.79;56.14
29467;BME280;60968;37.490;-122.288;2022-10-23T16:08:41;98784.50;;;11.70;57.07
29467;BME280;60968;37.490;-122.288;2022-10-23T16:11:42;98787.72;;;11.81;57.29
29467;BME280;60968;37.490;-122.288;2022-10-23T16:14:44;98790.34;;;11.80;57.25
29467;BME280;60968;37.490;-122.288;2022-10-23T16:17:44;98801.53;;;11.85;56.00
29467;BME280;60968;37.490;-122.288;2022-10-23T16:20:45;98789.13;;;11.96;54.39
29467;BME280;60968;37.490;-122.288;2022-10-23T16:23:46;98800.97;;;12.11;52.89
29467;BME280;60968;37.490;-122.288;2022-10-23T16:26:47;98796.22;;;12.27;52.06
29467;BME280;60968;37.490;-122.288;2022-10-23T16:29:48;98801.63;;;12.56;51.16
29467;BME280;60968;37.490;-122.288;2022-10-23T16:32:49;98790.81;;;15.23;44.74
29467;BME280;60968;37.490;-122.288;2022-10-23T16:35:50;98785.16;;;18.94;35.49
29467;BME280;60968;37.490;-122.288;2022-10-23T16:38:51;98786.56;;;21.78;32.77
29467;BME280;60968;37.490;-122.288;2022-10-23T16:41:51;98803.06;;;22.37;30.03
29467;BME280;60968;37.490;-122.288;2022-10-23T16:44:53;98798.25;;;23.60;29.28
29467;BME280;60968;37.490;-122.288;2022-10-23T16:47:54;98801.44;;;23.65;26.66
29467;BME280;60968;37.490;-122.288;2022-10-23T16:50:55;98799.16;;;23.85;26.00
29467;BME280;60968;37.490;-122.288;2022-10-23T16:53:57;98797.09;;;23.51;26.24
29467;BME280;60968;37.490;-122.288;2022-10-23T16:56:58;98810.34;;;24.38;25.62
29467;BME280;60968;37.490;-122.288;2022-10-23T16:59:59;98812.03;;;25.10;25.65
29467;BME280;60968;37.490;-122.288;2022-10-23T17:03:01;98818.63;;;25.17;24.94
29467;BME280;60968;37.490;-122.288;2022-10-23T17:06:04;98822.03;;;25.42;24.17
29467;BME280;60968;37.490;-122.288;2022-10-23T17:09:06;98824.03;;;25.05;25.17
29467;BME280;60968;37.490;-122.288;2022-10-23T17:12:07;98828.59;;;25.49;24.52
29467;BME280;60968;37.490;-122.288;2022-10-23T17:15:08;98827.72;;;24.79;25.02
29467;BME280;60968;37.490;-122.288;2022-10-23T17:18:09;98826.84;;;25.26;24.46
29467;BME280;60968;37.490;-122.288;2022-10-23T17:21:11;98823.84;;;25.76;24.06
29467;BME280;60968;37.490;-122.288;2022-10-23T17:24:12;98821.66;;;24.77;24.60
29467;BME280;60968;37.490;-122.288;2022-10-23T17:27:14;98827.66;;;21.56;27.68